sensor_id;sensor_type;location;lat;lon;timestamp;P1;durP1;ratioP1;P2;durP2;ratioP2
44816;SDS011;30529;53.570;9.964;2023-03-17T00:00:14;5.63;;;1.90;;
44816;SDS011;30529;53.570;9.964;2023-03-17T00:02:42;3.50;;;1.40;;
44816;SDS011;30529;53.570;9.964;2023-03-17T00:05:14;2.23;;;1.30;;
44816;SDS011;30529;53.570;9.964;2023-03-17T00:07:40;4.67;;;1.90;;
44816;SDS011;30529;53.570;9.964;2023-03-17T00:10:12;5.47;;;1.83;;
44816;SDS011;30529;53.570;9.964;2023-03-17T00:12:43;4.60;;;1.70;;
44816;SDS011;30529;53.570;9.964;2023-03-17T00:15:10;5.70;;;1.83;;
44816;SDS011;30529;53.570;9.964;2023-03-17T00:17:38;3.10;;;1.70;;
44816;SDS011;30529;53.570;9.964;2023-03-17T00:20:04;5.23;;;1.63;;
44816;SDS011;30529;53.570;9.964;2023-03-17T00:22:31;15.03;;;1.83;;
44816;SDS011;30529;53.570;9.964;2023-03-17T00:24:57;3.23;;;1.60;;
44816;SDS011;30529;53.570;9.964;2023-03-17T00:27:23;6.40;;;2.13;;
44816;SDS011;30529;53.570;9.964;2023-03-17T00:29:49;4.13;;;1.70;;
44816;SDS011;30529;53.570;9.964;2023-03-17T00:32:18;4.97;;;1.50;;
44816;SDS011;30529;53.570;9.964;2023-03-17T00:34:50;3.00;;;1.80;;
44816;SDS011;30529;53.570;9.964;2023-03-17T00:37:16;2.73;;;1.60;;
44816;SDS011;30529;53.570;9.964;2023-03-17T00:39:42;2.43;;;1.30;;
44816;SDS011;30529;53.570;9.964;2023-03-17T00:42:12;5.13;;;1.60;;
44816;SDS011;30529;53.570;9.964;2023-03-17T00:44:38;2.90;;;1.90;;
44816;SDS011;30529;53.570;9.964;2023-03-17T00:47:04;2.90;;;1.60;;
44816;SDS011;30529;53.570;9.964;2023-03-17T00:49:31;3.70;;;1.63;;
44816;SDS011;30529;53.570;9.964;2023-03-17T00:51:57;3.07;;;1.63;;
44816;SDS011;30529;53.570;9.964;2023-03-17T00:54:24;4.40;;;1.83;;
44816;SDS011;30529;53.570;9.964;2023-03-17T00:56:53;4.57;;;1.67;;
44816;SDS011;30529;53.570;9.964;2023-03-17T00:59:23;2.97;;;1.93;;
44816;SDS011;30529;53.570;9.964;2023-03-17T01:01:54;3.53;;;1.43;;
44816;SDS011;30529;53.570;9.964;2023-03-17T01:04:23;2.23;;;1.53;;
44816;SDS011;30529;53.570;9.964;2023-03-17T01:06:52;3.20;;;1.40;;
44816;SDS011;30529;53.570;9.964;2023-03-17T01:09:26;3.03;;;1.70;;
44816;SDS011;30529;53.570;9.964;2023-03-17T01:12:23;4.00;;;1.70;;
44816;SDS011;30529;53.570;9.964;2023-03-17T01:14:50;4.63;;;1.70;;
44816;SDS011;30529;53.570;9.964;2023-03-17T01:17:17;3.60;;;1.70;;
44816;SDS011;30529;53.570;9.964;2023-03-17T01:19:44;3.13;;;2.07;;
44816;SDS011;30529;53.570;9.964;2023-03-17T01:22:13;4.17;;;2.00;;
44816;SDS011;30529;53.570;9.964;2023-03-17T01:24:40;3.90;;;1.80;;
44816;SDS011;30529;53.570;9.964;2023-03-17T01:27:08;3.57;;;1.47;;
44816;SDS011;30529;53.570;9.964;2023-03-17T01:29:37;3.37;;;1.50;;
44816;SDS011;30529;53.570;9.964;2023-03-17T01:32:12;5.23;;;1.40;;
44816;SDS011;30529;53.570;9.964;2023-03-17T01:34:38;5.20;;;2.33;;
44816;SDS011;30529;53.570;9.964;2023-03-17T01:37:04;4.47;;;1.60;;
44816;SDS011;30529;53.570;9.964;2023-03-17T01:39:30;3.57;;;2.10;;
44816;SDS011;30529;53.570;9.964;2023-03-17T01:41:59;2.93;;;1.77;;
44816;SDS011;30529;53.570;9.964;2023-03-17T01:44:28;11.10;;;2.27;;
44816;SDS011;30529;53.570;9.964;2023-03-17T01:46:54;4.70;;;2.00;;
44816;SDS011;30529;53.570;9.964;2023-03-17T01:49:22;3.23;;;1.77;;
44816;SDS011;30529;53.570;9.964;2023-03-17T01:51:53;4.07;;;1.77;;
44816;SDS011;30529;53.570;9.964;2023-03-17T01:54:28;2.80;;;1.77;;
44816;SDS011;30529;53.570;9.964;2023-03-17T01:56:59;5.77;;;1.80;;
44816;SDS011;30529;53.570;9.964;2023-03-17T02:00:04;3.83;;;1.60;;
44816;SDS011;30529;53.570;9.964;2023-03-17T02:02:37;3.83;;;1.40;;
44816;SDS011;30529;53.570;9.964;2023-03-17T02:05:12;2.40;;;1.70;;
44816;SDS011;30529;53.570;9.964;2023-03-17T02:07:46;2.93;;;1.90;;
44816;SDS011;30529;53.570;9.964;2023-03-17T02:10:24;4.40;;;1.73;;
44816;SDS011;30529;53.570;9.964;2023-03-17T02:12:58;4.47;;;1.80;;
44816;SDS011;30529;53.570;9.964;2023-03-17T02:15:37;3.27;;;1.80;;
44816;SDS011;30529;53.570;9.964;2023-03-17T02:18:09;7.63;;;2.13;;
44816;SDS011;30529;53.570;9.964;2023-03-17T02:23:04;3.83;;;2.57;;
44816;SDS011;30529;53.570;9.964;2023-03-17T02:25:35;3.47;;;2.00;;
44816;SDS011;30529;53.570;9.964;2023-03-17T02:28:12;6.33;;;1.93;;
44816;SDS011;30529;53.570;9.964;2023-03-17T02:30:41;3.00;;;2.00;;
44816;SDS011;30529;53.570;9.964;2023-03-17T02:33:08;3.70;;;2.37;;
44816;SDS011;30529;53.570;9.964;2023-03-17T02:35:38;5.13;;;1.70;;
44816;SDS011;30529;53.570;9.964;2023-03-17T02:38:04;2.50;;;1.57;;
44816;SDS011;30529;53.570;9.964;2023-03-17T02:40:33;5.47;;;2.23;;
44816;SDS011;30529;53.570;9.964;2023-03-17T02:43:02;5.20;;;2.03;;
44816;SDS011;30529;53.570;9.964;2023-03-17T02:45:30;2.47;;;1.90;;
44816;SDS011;30529;53.570;9.964;2023-03-17T02:47:58;4.63;;;2.30;;
44816;SDS011;30529;53.570;9.964;2023-03-17T02:50:40;5.80;;;2.00;;
44816;SDS011;30529;53.570;9.964;2023-03-17T02:53:06;3.77;;;1.83;;
44816;SDS011;30529;53.570;9.964;2023-03-17T02:55:35;4.87;;;2.17;;
44816;SDS011;30529;53.570;9.964;2023-03-17T02:58:01;6.27;;;1.83;;
44816;SDS011;30529;53.570;9.964;2023-03-17T03:00:30;7.17;;;3.60;;
44816;SDS011;30529;53.570;9.964;2023-03-17T03:02:57;7.73;;;3.27;;
44816;SDS011;30529;53.570;9.964;2023-03-17T03:05:22;3.50;;;2.30;;
44816;SDS011;30529;53.570;9.964;2023-03-17T03:07:49;4.83;;;2.40;;
44816;SDS011;30529;53.570;9.964;2023-03-17T03:10:21;4.40;;;2.13;;
44816;SDS011;30529;53.570;9.964;2023-03-17T03:12:50;3.23;;;2.40;;
44816;SDS011;30529;53.570;9.964;2023-03-17T03:15:26;3.77;;;2.40;;
44816;SDS011;30529;53.570;9.964;2023-03-17T03:17:52;3.27;;;2.10;;
44816;SDS011;30529;53.570;9.964;2023-03-17T03:20:18;5.77;;;2.10;;
44816;SDS011;30529;53.570;9.964;2023-03-17T03:22:45;5.27;;;2.80;;
44816;SDS011;30529;53.570;9.964;2023-03-17T03:25:11;5.33;;;2.83;;
44816;SDS011;30529;53.570;9.964;2023-03-17T03:27:38;4.50;;;2.37;;
44816;SDS011;30529;53.570;9.964;2023-03-17T03:30:04;3.30;;;2.17;;
44816;SDS011;30529;53.570;9.964;2023-03-17T03:32:33;3.53;;;2.13;;
44816;SDS011;30529;53.570;9.964;2023-03-17T03:34:59;4.40;;;2.47;;
44816;SDS011;30529;53.570;9.964;2023-03-17T03:37:25;4.23;;;2.37;;
44816;SDS011;30529;53.570;9.964;2023-03-17T03:39:51;4.00;;;2.20;;
44816;SDS011;30529;53.570;9.964;2023-03-17T03:42:17;5.00;;;2.60;;
44816;SDS011;30529;53.570;9.964;2023-03-17T03:44:43;4.67;;;2.20;;
44816;SDS011;30529;53.570;9.964;2023-03-17T03:47:11;3.33;;;2.00;;
44816;SDS011;30529;53.570;9.964;2023-03-17T03:49:37;6.30;;;2.30;;
44816;SDS011;30529;53.570;9.964;2023-03-17T03:54:58;4.47;;;2.93;;
44816;SDS011;30529;53.570;9.964;2023-03-17T03:57:24;3.90;;;2.60;;
44816;SDS011;30529;53.570;9.964;2023-03-17T03:59:50;6.57;;;2.63;;
44816;SDS011;30529;53.570;9.964;2023-03-17T04:02:16;4.27;;;2.53;;
44816;SDS011;30529;53.570;9.964;2023-03-17T04:04:43;5.33;;;2.70;;
44816;SDS011;30529;53.570;9.964;2023-03-17T04:07:09;5.23;;;2.23;;
44816;SDS011;30529;53.570;9.964;2023-03-17T04:09:35;3.87;;;2.07;;
44816;SDS011;30529;53.570;9.964;2023-03-17T04:12:02;8.30;;;2.40;;
44816;SDS011;30529;53.570;9.964;2023-03-17T04:14:28;5.63;;;2.80;;
44816;SDS011;30529;53.570;9.964;2023-03-17T04:16:54;8.20;;;2.67;;
44816;SDS011;30529;53.570;9.964;2023-03-17T04:19:20;6.07;;;2.60;;
44816;SDS011;30529;53.570;9.964;2023-03-17T04:21:49;8.63;;;2.60;;
44816;SDS011;30529;53.570;9.964;2023-03-17T04:24:15;4.33;;;2.67;;
44816;SDS011;30529;53.570;9.964;2023-03-17T04:26:41;6.13;;;3.10;;
44816;SDS011;30529;53.570;9.964;2023-03-17T04:29:07;4.90;;;2.53;;
44816;SDS011;30529;53.570;9.964;2023-03-17T04:31:35;3.63;;;2.30;;
44816;SDS011;30529;53.570;9.964;2023-03-17T04:34:01;4.27;;;2.63;;
44816;SDS011;30529;53.570;9.964;2023-03-17T04:36:27;4.10;;;2.60;;
44816;SDS011;30529;53.570;9.964;2023-03-17T04:38:53;6.50;;;2.63;;
44816;SDS011;30529;53.570;9.964;2023-03-17T04:41:19;3.93;;;2.43;;
44816;SDS011;30529;53.570;9.964;2023-03-17T04:43:45;4.37;;;2.40;;
44816;SDS011;30529;53.570;9.964;2023-03-17T04:46:11;3.90;;;2.33;;
44816;SDS011;30529;53.570;9.964;2023-03-17T04:48:38;4.57;;;2.40;;
44816;SDS011;30529;53.570;9.964;2023-03-17T04:51:04;6.53;;;3.00;;
44816;SDS011;30529;53.570;9.964;2023-03-17T04:53:30;4.87;;;2.50;;
44816;SDS011;30529;53.570;9.964;2023-03-17T04:55:57;5.47;;;2.70;;
44816;SDS011;30529;53.570;9.964;2023-03-17T04:58:22;5.07;;;2.87;;
44816;SDS011;30529;53.570;9.964;2023-03-17T05:00:50;6.03;;;2.63;;
44816;SDS011;30529;53.570;9.964;2023-03-17T05:03:16;4.87;;;2.60;;
44816;SDS011;30529;53.570;9.964;2023-03-17T05:05:42;4.57;;;2.80;;
44816;SDS011;30529;53.570;9.964;2023-03-17T05:08:10;9.93;;;3.07;;
44816;SDS011;30529;53.570;9.964;2023-03-17T05:10:36;6.43;;;3.13;;
44816;SDS011;30529;53.570;9.964;2023-03-17T05:13:02;3.60;;;2.40;;
44816;SDS011;30529;53.570;9.964;2023-03-17T05:15:28;7.77;;;3.93;;
44816;SDS011;30529;53.570;9.964;2023-03-17T05:17:55;4.37;;;2.97;;
44816;SDS011;30529;53.570;9.964;2023-03-17T05:20:21;5.90;;;3.00;;
44816;SDS011;30529;53.570;9.964;2023-03-17T05:22:47;6.20;;;2.90;;
44816;SDS011;30529;53.570;9.964;2023-03-17T05:25:13;7.63;;;3.20;;
44816;SDS011;30529;53.570;9.964;2023-03-17T05:27:39;9.63;;;3.00;;
44816;SDS011;30529;53.570;9.964;2023-03-17T05:30:06;3.80;;;2.80;;
44816;SDS011;30529;53.570;9.964;2023-03-17T05:32:32;6.77;;;2.87;;
44816;SDS011;30529;53.570;9.964;2023-03-17T05:34:58;5.50;;;3.27;;
44816;SDS011;30529;53.570;9.964;2023-03-17T05:37:24;16.23;;;3.53;;
44816;SDS011;30529;53.570;9.964;2023-03-17T05:39:50;7.33;;;3.00;;
44816;SDS011;30529;53.570;9.964;2023-03-17T05:42:18;8.37;;;3.17;;
44816;SDS011;30529;53.570;9.964;2023-03-17T05:44:44;5.70;;;3.33;;
44816;SDS011;30529;53.570;9.964;2023-03-17T05:47:10;9.07;;;3.63;;
44816;SDS011;30529;53.570;9.964;2023-03-17T05:49:36;5.73;;;3.00;;
44816;SDS011;30529;53.570;9.964;2023-03-17T05:52:02;6.23;;;3.33;;
44816;SDS011;30529;53.570;9.964;2023-03-17T05:54:28;11.17;;;3.57;;
44816;SDS011;30529;53.570;9.964;2023-03-17T05:56:54;7.47;;;3.33;;
44816;SDS011;30529;53.570;9.964;2023-03-17T05:59:20;7.63;;;3.30;;
44816;SDS011;30529;53.570;9.964;2023-03-17T06:01:46;8.10;;;3.57;;
44816;SDS011;30529;53.570;9.964;2023-03-17T06:04:12;5.00;;;2.87;;
44816;SDS011;30529;53.570;9.964;2023-03-17T06:06:38;5.53;;;2.70;;
44816;SDS011;30529;53.570;9.964;2023-03-17T06:09:04;7.47;;;3.30;;
44816;SDS011;30529;53.570;9.964;2023-03-17T06:11:30;7.83;;;3.90;;
44816;SDS011;30529;53.570;9.964;2023-03-17T06:13:56;12.67;;;4.33;;
44816;SDS011;30529;53.570;9.964;2023-03-17T06:16:22;6.93;;;3.00;;
44816;SDS011;30529;53.570;9.964;2023-03-17T06:18:48;5.13;;;2.83;;
44816;SDS011;30529;53.570;9.964;2023-03-17T06:21:14;6.93;;;4.10;;
44816;SDS011;30529;53.570;9.964;2023-03-17T06:23:40;7.30;;;3.27;;
44816;SDS011;30529;53.570;9.964;2023-03-17T06:26:06;8.87;;;3.37;;
44816;SDS011;30529;53.570;9.964;2023-03-17T06:28:32;12.80;;;3.53;;
44816;SDS011;30529;53.570;9.964;2023-03-17T06:30:58;9.43;;;3.47;;
44816;SDS011;30529;53.570;9.964;2023-03-17T06:33:24;5.23;;;2.93;;
44816;SDS011;30529;53.570;9.964;2023-03-17T06:35:55;12.03;;;3.93;;
44816;SDS011;30529;53.570;9.964;2023-03-17T06:38:23;8.57;;;3.60;;
44816;SDS011;30529;53.570;9.964;2023-03-17T06:40:49;7.50;;;3.00;;
44816;SDS011;30529;53.570;9.964;2023-03-17T06:43:15;7.67;;;3.33;;
44816;SDS011;30529;53.570;9.964;2023-03-17T06:45:44;8.30;;;3.50;;
44816;SDS011;30529;53.570;9.964;2023-03-17T06:48:10;6.97;;;3.23;;
44816;SDS011;30529;53.570;9.964;2023-03-17T06:50:36;7.23;;;3.83;;
44816;SDS011;30529;53.570;9.964;2023-03-17T06:53:03;8.43;;;3.80;;
44816;SDS011;30529;53.570;9.964;2023-03-17T06:55:29;9.30;;;3.67;;
44816;SDS011;30529;53.570;9.964;2023-03-17T06:57:56;7.77;;;4.40;;
44816;SDS011;30529;53.570;9.964;2023-03-17T07:00:23;6.10;;;3.63;;
44816;SDS011;30529;53.570;9.964;2023-03-17T07:02:49;7.03;;;3.60;;
44816;SDS011;30529;53.570;9.964;2023-03-17T07:05:15;8.30;;;3.40;;
44816;SDS011;30529;53.570;9.964;2023-03-17T07:07:41;8.67;;;4.27;;
44816;SDS011;30529;53.570;9.964;2023-03-17T07:10:08;17.13;;;3.83;;
44816;SDS011;30529;53.570;9.964;2023-03-17T07:12:35;6.30;;;3.47;;
44816;SDS011;30529;53.570;9.964;2023-03-17T07:15:01;7.13;;;3.80;;
44816;SDS011;30529;53.570;9.964;2023-03-17T07:17:28;9.90;;;4.00;;
44816;SDS011;30529;53.570;9.964;2023-03-17T07:19:54;7.27;;;3.90;;
44816;SDS011;30529;53.570;9.964;2023-03-17T07:22:21;7.87;;;3.50;;
44816;SDS011;30529;53.570;9.964;2023-03-17T07:24:47;9.80;;;4.03;;
44816;SDS011;30529;53.570;9.964;2023-03-17T07:27:16;9.40;;;3.80;;
44816;SDS011;30529;53.570;9.964;2023-03-17T07:29:42;6.33;;;3.40;;
44816;SDS011;30529;53.570;9.964;2023-03-17T07:32:09;6.27;;;3.73;;
44816;SDS011;30529;53.570;9.964;2023-03-17T07:34:35;11.37;;;3.47;;
44816;SDS011;30529;53.570;9.964;2023-03-17T07:37:01;10.70;;;3.77;;
44816;SDS011;30529;53.570;9.964;2023-03-17T07:39:28;9.07;;;3.70;;
44816;SDS011;30529;53.570;9.964;2023-03-17T07:41:54;6.67;;;3.57;;
44816;SDS011;30529;53.570;9.964;2023-03-17T07:44:20;5.03;;;3.33;;
44816;SDS011;30529;53.570;9.964;2023-03-17T07:46:47;8.67;;;3.83;;
44816;SDS011;30529;53.570;9.964;2023-03-17T07:49:14;12.10;;;4.60;;
44816;SDS011;30529;53.570;9.964;2023-03-17T07:51:40;5.87;;;3.30;;
44816;SDS011;30529;53.570;9.964;2023-03-17T07:54:08;5.83;;;3.27;;
44816;SDS011;30529;53.570;9.964;2023-03-17T07:56:36;6.53;;;3.90;;
44816;SDS011;30529;53.570;9.964;2023-03-17T07:59:03;8.80;;;4.40;;
44816;SDS011;30529;53.570;9.964;2023-03-17T08:01:31;7.07;;;3.50;;
44816;SDS011;30529;53.570;9.964;2023-03-17T08:03:57;7.63;;;3.37;;
44816;SDS011;30529;53.570;9.964;2023-03-17T08:06:23;8.97;;;3.30;;
44816;SDS011;30529;53.570;9.964;2023-03-17T08:08:50;8.97;;;2.83;;
44816;SDS011;30529;53.570;9.964;2023-03-17T08:11:17;8.00;;;3.27;;
44816;SDS011;30529;53.570;9.964;2023-03-17T08:13:46;7.83;;;3.30;;
44816;SDS011;30529;53.570;9.964;2023-03-17T08:16:12;5.10;;;3.30;;
44816;SDS011;30529;53.570;9.964;2023-03-17T08:18:38;6.70;;;3.17;;
44816;SDS011;30529;53.570;9.964;2023-03-17T08:21:05;7.07;;;3.90;;
44816;SDS011;30529;53.570;9.964;2023-03-17T08:23:31;13.47;;;3.63;;
44816;SDS011;30529;53.570;9.964;2023-03-17T08:25:58;5.03;;;3.53;;
44816;SDS011;30529;53.570;9.964;2023-03-17T08:28:26;8.57;;;4.30;;
44816;SDS011;30529;53.570;9.964;2023-03-17T08:30:52;5.63;;;3.40;;
44816;SDS011;30529;53.570;9.964;2023-03-17T08:33:19;7.37;;;3.60;;
44816;SDS011;30529;53.570;9.964;2023-03-17T08:35:47;4.57;;;3.00;;
44816;SDS011;30529;53.570;9.964;2023-03-17T08:38:15;7.50;;;3.50;;
44816;SDS011;30529;53.570;9.964;2023-03-17T08:40:41;7.63;;;3.10;;
44816;SDS011;30529;53.570;9.964;2023-03-17T08:43:07;6.77;;;2.73;;
44816;SDS011;30529;53.570;9.964;2023-03-17T08:45:34;5.33;;;3.27;;
44816;SDS011;30529;53.570;9.964;2023-03-17T08:48:00;9.23;;;2.90;;
44816;SDS011;30529;53.570;9.964;2023-03-17T08:50:26;6.37;;;2.83;;
44816;SDS011;30529;53.570;9.964;2023-03-17T08:52:54;6.40;;;3.33;;
44816;SDS011;30529;53.570;9.964;2023-03-17T08:55:25;7.90;;;3.00;;
44816;SDS011;30529;53.570;9.964;2023-03-17T08:57:52;6.57;;;3.63;;
44816;SDS011;30529;53.570;9.964;2023-03-17T09:00:18;8.80;;;3.60;;
44816;SDS011;30529;53.570;9.964;2023-03-17T09:02:45;7.77;;;3.13;;
44816;SDS011;30529;53.570;9.964;2023-03-17T09:05:13;7.03;;;3.20;;
44816;SDS011;30529;53.570;9.964;2023-03-17T09:07:41;4.63;;;2.77;;
44816;SDS011;30529;53.570;9.964;2023-03-17T09:10:08;5.60;;;3.33;;
44816;SDS011;30529;53.570;9.964;2023-03-17T09:12:35;5.37;;;2.80;;
44816;SDS011;30529;53.570;9.964;2023-03-17T09:15:02;7.47;;;2.90;;
44816;SDS011;30529;53.570;9.964;2023-03-17T09:17:29;5.83;;;3.83;;
44816;SDS011;30529;53.570;9.964;2023-03-17T09:19:55;4.77;;;3.10;;
44816;SDS011;30529;53.570;9.964;2023-03-17T09:22:21;5.23;;;2.60;;
44816;SDS011;30529;53.570;9.964;2023-03-17T09:24:47;11.83;;;3.87;;
44816;SDS011;30529;53.570;9.964;2023-03-17T09:27:13;8.57;;;3.33;;
44816;SDS011;30529;53.570;9.964;2023-03-17T09:29:40;5.37;;;2.63;;
44816;SDS011;30529;53.570;9.964;2023-03-17T09:32:06;8.53;;;2.87;;
44816;SDS011;30529;53.570;9.964;2023-03-17T09:34:33;5.73;;;2.73;;
44816;SDS011;30529;53.570;9.964;2023-03-17T09:37:00;6.70;;;2.50;;
44816;SDS011;30529;53.570;9.964;2023-03-17T09:39:26;5.83;;;2.90;;
44816;SDS011;30529;53.570;9.964;2023-03-17T09:42:11;13.90;;;2.70;;
44816;SDS011;30529;53.570;9.964;2023-03-17T09:48:20;4.77;;;2.43;;
44816;SDS011;30529;53.570;9.964;2023-03-17T09:51:08;8.20;;;3.10;;
44816;SDS011;30529;53.570;9.964;2023-03-17T09:56:14;9.53;;;3.47;;
44816;SDS011;30529;53.570;9.964;2023-03-17T09:58:44;9.40;;;3.60;;
44816;SDS011;30529;53.570;9.964;2023-03-17T10:01:16;3.37;;;2.13;;
44816;SDS011;30529;53.570;9.964;2023-03-17T10:03:42;4.83;;;2.27;;
44816;SDS011;30529;53.570;9.964;2023-03-17T10:09:22;6.53;;;2.67;;
44816;SDS011;30529;53.570;9.964;2023-03-17T10:18:20;6.13;;;2.27;;
44816;SDS011;30529;53.570;9.964;2023-03-17T10:20:54;4.87;;;2.40;;
44816;SDS011;30529;53.570;9.964;2023-03-17T10:23:28;4.20;;;2.40;;
44816;SDS011;30529;53.570;9.964;2023-03-17T10:26:01;4.70;;;2.47;;
44816;SDS011;30529;53.570;9.964;2023-03-17T10:28:33;4.67;;;2.50;;
44816;SDS011;30529;53.570;9.964;2023-03-17T10:33:53;6.33;;;2.37;;
44816;SDS011;30529;53.570;9.964;2023-03-17T10:36:37;11.27;;;2.70;;
44816;SDS011;30529;53.570;9.964;2023-03-17T10:39:06;4.70;;;2.20;;
44816;SDS011;30529;53.570;9.964;2023-03-17T10:41:37;5.47;;;2.20;;
44816;SDS011;30529;53.570;9.964;2023-03-17T10:44:09;3.00;;;2.13;;
44816;SDS011;30529;53.570;9.964;2023-03-17T10:46:51;4.73;;;2.50;;
44816;SDS011;30529;53.570;9.964;2023-03-17T10:49:18;5.57;;;2.37;;
44816;SDS011;30529;53.570;9.964;2023-03-17T10:51:48;8.53;;;2.70;;
44816;SDS011;30529;53.570;9.964;2023-03-17T10:54:17;4.20;;;2.90;;
44816;SDS011;30529;53.570;9.964;2023-03-17T10:56:45;5.20;;;2.47;;
44816;SDS011;30529;53.570;9.964;2023-03-17T10:59:16;4.57;;;2.00;;
44816;SDS011;30529;53.570;9.964;2023-03-17T11:01:52;5.30;;;2.57;;
44816;SDS011;30529;53.570;9.964;2023-03-17T11:04:35;4.87;;;2.70;;
44816;SDS011;30529;53.570;9.964;2023-03-17T11:07:08;5.60;;;2.37;;
44816;SDS011;30529;53.570;9.964;2023-03-17T11:09:40;6.97;;;3.13;;
44816;SDS011;30529;53.570;9.964;2023-03-17T11:12:17;7.00;;;2.60;;
44816;SDS011;30529;53.570;9.964;2023-03-17T11:14:59;4.83;;;1.97;;
44816;SDS011;30529;53.570;9.964;2023-03-17T11:22:36;4.60;;;2.10;;
44816;SDS011;30529;53.570;9.964;2023-03-17T11:25:08;3.23;;;2.00;;
44816;SDS011;30529;53.570;9.964;2023-03-17T11:32:56;6.00;;;2.23;;
44816;SDS011;30529;53.570;9.964;2023-03-17T11:35:37;4.93;;;2.07;;
44816;SDS011;30529;53.570;9.964;2023-03-17T11:38:26;2.73;;;1.80;;
44816;SDS011;30529;53.570;9.964;2023-03-17T11:46:24;4.87;;;2.10;;
44816;SDS011;30529;53.570;9.964;2023-03-17T11:49:10;2.83;;;1.83;;
44816;SDS011;30529;53.570;9.964;2023-03-17T11:57:28;4.13;;;1.90;;
44816;SDS011;30529;53.570;9.964;2023-03-17T12:00:06;3.90;;;1.67;;
44816;SDS011;30529;53.570;9.964;2023-03-17T12:05:53;5.07;;;2.30;;
44816;SDS011;30529;53.570;9.964;2023-03-17T12:08:28;4.43;;;2.30;;
44816;SDS011;30529;53.570;9.964;2023-03-17T12:11:23;6.13;;;1.83;;
44816;SDS011;30529;53.570;9.964;2023-03-17T12:13:59;5.83;;;1.63;;
44816;SDS011;30529;53.570;9.964;2023-03-17T12:19:21;4.43;;;2.00;;
44816;SDS011;30529;53.570;9.964;2023-03-17T12:21:54;7.93;;;1.80;;
44816;SDS011;30529;53.570;9.964;2023-03-17T12:27:10;3.70;;;1.93;;
44816;SDS011;30529;53.570;9.964;2023-03-17T12:32:25;4.77;;;1.90;;
44816;SDS011;30529;53.570;9.964;2023-03-17T12:35:44;3.70;;;1.97;;
44816;SDS011;30529;53.570;9.964;2023-03-17T12:37:59;7.90;;;2.57;;
44816;SDS011;30529;53.570;9.964;2023-03-17T12:40:46;6.47;;;1.87;;
44816;SDS011;30529;53.570;9.964;2023-03-17T12:46:20;3.20;;;2.00;;
44816;SDS011;30529;53.570;9.964;2023-03-17T12:49:21;2.00;;;1.47;;
44816;SDS011;30529;53.570;9.964;2023-03-17T12:52:06;5.57;;;1.80;;
44816;SDS011;30529;53.570;9.964;2023-03-17T12:54:50;3.73;;;2.13;;
44816;SDS011;30529;53.570;9.964;2023-03-17T12:57:21;4.97;;;1.83;;
44816;SDS011;30529;53.570;9.964;2023-03-17T12:59:57;3.73;;;2.10;;
44816;SDS011;30529;53.570;9.964;2023-03-17T13:02:31;3.40;;;1.80;;
44816;SDS011;30529;53.570;9.964;2023-03-17T13:05:04;3.77;;;2.10;;
44816;SDS011;30529;53.570;9.964;2023-03-17T13:07:49;4.73;;;2.50;;
44816;SDS011;30529;53.570;9.964;2023-03-17T13:13:09;4.20;;;1.90;;
44816;SDS011;30529;53.570;9.964;2023-03-17T13:20:43;3.80;;;2.20;;
44816;SDS011;30529;53.570;9.964;2023-03-17T13:23:40;3.87;;;2.20;;
44816;SDS011;30529;53.570;9.964;2023-03-17T13:29:44;5.00;;;2.00;;
44816;SDS011;30529;53.570;9.964;2023-03-17T13:35:19;4.57;;;2.50;;
44816;SDS011;30529;53.570;9.964;2023-03-17T13:49:03;6.43;;;1.60;;
44816;SDS011;30529;53.570;9.964;2023-03-17T13:51:56;4.60;;;1.87;;
44816;SDS011;30529;53.570;9.964;2023-03-17T13:54:47;4.53;;;1.70;;
44816;SDS011;30529;53.570;9.964;2023-03-17T13:57:29;5.73;;;2.17;;
44816;SDS011;30529;53.570;9.964;2023-03-17T14:02:34;3.80;;;2.07;;
44816;SDS011;30529;53.570;9.964;2023-03-17T14:05:04;3.20;;;1.77;;
44816;SDS011;30529;53.570;9.964;2023-03-17T14:07:47;4.20;;;1.73;;
44816;SDS011;30529;53.570;9.964;2023-03-17T14:10:19;2.60;;;1.53;;
44816;SDS011;30529;53.570;9.964;2023-03-17T14:16:04;3.47;;;2.03;;
44816;SDS011;30529;53.570;9.964;2023-03-17T14:18:46;3.00;;;2.03;;
44816;SDS011;30529;53.570;9.964;2023-03-17T14:21:21;6.00;;;2.20;;
44816;SDS011;30529;53.570;9.964;2023-03-17T14:24:01;4.83;;;2.30;;
44816;SDS011;30529;53.570;9.964;2023-03-17T14:27:02;7.63;;;1.70;;
44816;SDS011;30529;53.570;9.964;2023-03-17T14:29:35;7.13;;;1.70;;
44816;SDS011;30529;53.570;9.964;2023-03-17T14:32:03;6.87;;;2.00;;
44816;SDS011;30529;53.570;9.964;2023-03-17T14:34:31;3.67;;;1.60;;
44816;SDS011;30529;53.570;9.964;2023-03-17T14:37:02;4.33;;;1.60;;
44816;SDS011;30529;53.570;9.964;2023-03-17T14:39:28;6.83;;;2.00;;
44816;SDS011;30529;53.570;9.964;2023-03-17T14:41:58;6.73;;;1.90;;
44816;SDS011;30529;53.570;9.964;2023-03-17T14:44:35;3.87;;;2.47;;
44816;SDS011;30529;53.570;9.964;2023-03-17T14:47:03;2.63;;;1.70;;
44816;SDS011;30529;53.570;9.964;2023-03-17T14:49:37;6.93;;;1.80;;
44816;SDS011;30529;53.570;9.964;2023-03-17T14:52:03;3.53;;;1.80;;
44816;SDS011;30529;53.570;9.964;2023-03-17T14:54:30;3.67;;;1.83;;
44816;SDS011;30529;53.570;9.964;2023-03-17T14:56:59;4.00;;;1.73;;
44816;SDS011;30529;53.570;9.964;2023-03-17T14:59:32;4.20;;;1.80;;
44816;SDS011;30529;53.570;9.964;2023-03-17T15:02:01;7.20;;;2.37;;
44816;SDS011;30529;53.570;9.964;2023-03-17T15:04:55;4.03;;;1.97;;
44816;SDS011;30529;53.570;9.964;2023-03-17T15:07:42;4.30;;;1.70;;
44816;SDS011;30529;53.570;9.964;2023-03-17T15:10:17;1.80;;;1.40;;
44816;SDS011;30529;53.570;9.964;2023-03-17T15:12:48;3.57;;;1.63;;
44816;SDS011;30529;53.570;9.964;2023-03-17T15:15:31;5.97;;;1.73;;
44816;SDS011;30529;53.570;9.964;2023-03-17T15:18:01;4.10;;;1.77;;
44816;SDS011;30529;53.570;9.964;2023-03-17T15:20:42;5.77;;;2.00;;
44816;SDS011;30529;53.570;9.964;2023-03-17T15:23:14;5.80;;;1.97;;
44816;SDS011;30529;53.570;9.964;2023-03-17T15:25:43;2.53;;;1.83;;
44816;SDS011;30529;53.570;9.964;2023-03-17T15:28:16;2.73;;;1.83;;
44816;SDS011;30529;53.570;9.964;2023-03-17T15:30:44;3.07;;;1.87;;
44816;SDS011;30529;53.570;9.964;2023-03-17T15:33:19;4.57;;;1.80;;
44816;SDS011;30529;53.570;9.964;2023-03-17T15:35:59;5.23;;;2.00;;
44816;SDS011;30529;53.570;9.964;2023-03-17T15:38:29;1.90;;;1.30;;
44816;SDS011;30529;53.570;9.964;2023-03-17T15:40:55;3.50;;;1.90;;
44816;SDS011;30529;53.570;9.964;2023-03-17T15:43:21;3.60;;;2.20;;
44816;SDS011;30529;53.570;9.964;2023-03-17T15:45:55;2.50;;;1.73;;
44816;SDS011;30529;53.570;9.964;2023-03-17T15:48:26;5.30;;;2.00;;
44816;SDS011;30529;53.570;9.964;2023-03-17T15:50:54;4.03;;;1.50;;
44816;SDS011;30529;53.570;9.964;2023-03-17T15:53:24;4.33;;;1.73;;
44816;SDS011;30529;53.570;9.964;2023-03-17T15:55:51;5.93;;;1.90;;
44816;SDS011;30529;53.570;9.964;2023-03-17T15:58:17;6.07;;;2.27;;
44816;SDS011;30529;53.570;9.964;2023-03-17T16:00:45;2.77;;;1.70;;
44816;SDS011;30529;53.570;9.964;2023-03-17T16:03:19;6.93;;;1.70;;
44816;SDS011;30529;53.570;9.964;2023-03-17T16:05:48;5.13;;;1.90;;
44816;SDS011;30529;53.570;9.964;2023-03-17T16:08:14;4.10;;;2.27;;
44816;SDS011;30529;53.570;9.964;2023-03-17T16:10:42;5.33;;;1.67;;
44816;SDS011;30529;53.570;9.964;2023-03-17T16:13:09;4.37;;;2.00;;
44816;SDS011;30529;53.570;9.964;2023-03-17T16:15:37;2.60;;;1.83;;
44816;SDS011;30529;53.570;9.964;2023-03-17T16:18:06;4.10;;;1.83;;
44816;SDS011;30529;53.570;9.964;2023-03-17T16:20:40;3.10;;;1.93;;
44816;SDS011;30529;53.570;9.964;2023-03-17T16:23:17;3.17;;;1.77;;
44816;SDS011;30529;53.570;9.964;2023-03-17T16:25:46;5.23;;;2.00;;
44816;SDS011;30529;53.570;9.964;2023-03-17T16:28:14;3.80;;;2.17;;
44816;SDS011;30529;53.570;9.964;2023-03-17T16:30:42;6.03;;;2.33;;
44816;SDS011;30529;53.570;9.964;2023-03-17T16:35:42;4.17;;;1.97;;
44816;SDS011;30529;53.570;9.964;2023-03-17T16:38:12;3.57;;;1.83;;